If you wish to contribute or participate in the discussions about articles you are invited to join SKYbrary as a registered user

 Actions

Santa Maria Aiport

From SKYbrary Wiki

LPAZ
Airport
ICAO: LPAZ – IATA: SMA
Summary
Name Santa Maria Aiport
Region Northern Atlantic
Territory Portugal PT.gif
Location Santa Maria, Região Autónoma dos Açores
Serving Santa Maria
Elevation 93.878 m
308 ft
308 ft93.878 m
Coordinates 36° 58' 17.00" N, 25° 10' 14.00" W
Runways
Designator Length Width Surface ROPS
4/22 1324 m4,343.832 ft
45 m147.638 ft
ASP /
15/33 1830 m6,003.937 ft
45 m147.638 ft
ASP /
18/36 3048 m10,000 ft
60 m196.85 ft
CON yes/yes


METAR
Observation LPAZ 111030Z 20011KT 8000 BKN002 17/17 Q1020
Station Santa Maria Acores
Date/Time 11 April 2019 10:30:00
Wind direction 200°
Wind speed 11 kts
Lowest cloud amount broken clouds
Temperature 17°C
Dew point 17°C
Humidity 100%
QNH 1020 hPa
Weather condition n/a

Santa Maria Airport

ICAO: LPAZ IATA: SMA

Description

International airport serving the island of Santa Maria in the Azores.

Climatology

Dry-summer subtropical ”Mediterranean" climate (Köppen climate classification Csa) - characterized by hot, dry summers and mild winters.

Maps

Terrain

Loading map...

Airport Layout

Loading map...